sensor_id;sensor_type;location;lat;lon;timestamp;P1;durP1;ratioP1;P2;durP2;ratioP2
74320;SDS011;62738;45.772;4.804;2022-08-25T00:00:54;6.40;;;1.70;;
74320;SDS011;62738;45.772;4.804;2022-08-25T00:03:42;4.13;;;1.90;;
74320;SDS011;62738;45.772;4.804;2022-08-25T00:06:30;3.45;;;1.73;;
74320;SDS011;62738;45.772;4.804;2022-08-25T00:09:18;2.83;;;1.55;;
74320;SDS011;62738;45.772;4.804;2022-08-25T00:12:07;4.80;;;1.80;;
74320;SDS011;62738;45.772;4.804;2022-08-25T00:14:55;3.97;;;2.03;;
74320;SDS011;62738;45.772;4.804;2022-08-25T00:17:41;3.47;;;1.80;;
74320;SDS011;62738;45.772;4.804;2022-08-25T00:20:29;3.60;;;1.85;;
74320;SDS011;62738;45.772;4.804;2022-08-25T00:23:16;4.15;;;1.70;;
74320;SDS011;62738;45.772;4.804;2022-08-25T00:26:04;2.70;;;1.73;;
74320;SDS011;62738;45.772;4.804;2022-08-25T00:28:53;3.70;;;1.75;;
74320;SDS011;62738;45.772;4.804;2022-08-25T00:31:47;2.38;;;1.70;;
74320;SDS011;62738;45.772;4.804;2022-08-25T00:34:35;4.90;;;1.70;;
74320;SDS011;62738;45.772;4.804;2022-08-25T00:40:10;3.35;;;1.75;;
74320;SDS011;62738;45.772;4.804;2022-08-25T00:42:58;4.78;;;1.95;;
74320;SDS011;62738;45.772;4.804;2022-08-25T00:45:46;5.22;;;1.90;;
74320;SDS011;62738;45.772;4.804;2022-08-25T00:48:33;3.90;;;1.80;;
74320;SDS011;62738;45.772;4.804;2022-08-25T00:51:26;5.05;;;1.80;;
74320;SDS011;62738;45.772;4.804;2022-08-25T00:54:24;4.05;;;1.67;;
74320;SDS011;62738;45.772;4.804;2022-08-25T00:57:16;3.83;;;1.90;;
74320;SDS011;62738;45.772;4.804;2022-08-25T01:00:22;3.67;;;1.70;;
74320;SDS011;62738;45.772;4.804;2022-08-25T01:03:15;4.95;;;2.20;;
74320;SDS011;62738;45.772;4.804;2022-08-25T01:06:06;4.18;;;1.80;;
74320;SDS011;62738;45.772;4.804;2022-08-25T01:08:53;3.35;;;1.92;;
74320;SDS011;62738;45.772;4.804;2022-08-25T01:11:40;3.55;;;1.80;;
74320;SDS011;62738;45.772;4.804;2022-08-25T01:14:29;3.10;;;1.67;;
74320;SDS011;62738;45.772;4.804;2022-08-25T01:17:18;3.45;;;1.77;;
74320;SDS011;62738;45.772;4.804;2022-08-25T01:20:06;5.80;;;2.10;;
74320;SDS011;62738;45.772;4.804;2022-08-25T01:22:54;3.90;;;1.73;;
74320;SDS011;62738;45.772;4.804;2022-08-25T01:25:44;2.70;;;1.65;;
74320;SDS011;62738;45.772;4.804;2022-08-25T01:28:34;2.53;;;1.77;;
74320;SDS011;62738;45.772;4.804;2022-08-25T01:31:22;2.85;;;1.60;;
74320;SDS011;62738;45.772;4.804;2022-08-25T01:34:10;5.72;;;2.05;;
74320;SDS011;62738;45.772;4.804;2022-08-25T01:36:58;4.22;;;1.50;;
74320;SDS011;62738;45.772;4.804;2022-08-25T01:39:46;2.88;;;1.75;;
74320;SDS011;62738;45.772;4.804;2022-08-25T01:45:41;2.63;;;1.60;;
74320;SDS011;62738;45.772;4.804;2022-08-25T01:48:29;3.72;;;1.42;;
74320;SDS011;62738;45.772;4.804;2022-08-25T01:51:19;5.22;;;1.65;;
74320;SDS011;62738;45.772;4.804;2022-08-25T01:54:09;5.75;;;2.05;;
74320;SDS011;62738;45.772;4.804;2022-08-25T01:56:56;2.97;;;1.63;;
74320;SDS011;62738;45.772;4.804;2022-08-25T01:59:44;2.90;;;1.52;;
74320;SDS011;62738;45.772;4.804;2022-08-25T02:02:31;3.47;;;1.67;;
74320;SDS011;62738;45.772;4.804;2022-08-25T02:05:19;5.68;;;1.70;;
74320;SDS011;62738;45.772;4.804;2022-08-25T02:08:09;1.98;;;1.48;;
74320;SDS011;62738;45.772;4.804;2022-08-25T02:10:57;3.67;;;1.73;;
74320;SDS011;62738;45.772;4.804;2022-08-25T02:13:44;2.60;;;1.67;;
74320;SDS011;62738;45.772;4.804;2022-08-25T02:16:32;5.32;;;1.73;;
74320;SDS011;62738;45.772;4.804;2022-08-25T02:19:22;2.67;;;1.70;;
74320;SDS011;62738;45.772;4.804;2022-08-25T02:22:11;4.45;;;1.75;;
74320;SDS011;62738;45.772;4.804;2022-08-25T02:55:43;3.35;;;1.83;;
74320;SDS011;62738;45.772;4.804;2022-08-25T02:58:30;2.63;;;1.73;;
74320;SDS011;62738;45.772;4.804;2022-08-25T03:01:17;4.30;;;1.90;;
74320;SDS011;62738;45.772;4.804;2022-08-25T03:04:04;3.33;;;1.90;;
74320;SDS011;62738;45.772;4.804;2022-08-25T03:06:52;3.90;;;1.75;;
74320;SDS011;62738;45.772;4.804;2022-08-25T03:09:39;4.25;;;1.92;;
74320;SDS011;62738;45.772;4.804;2022-08-25T03:12:26;4.00;;;1.73;;
74320;SDS011;62738;45.772;4.804;2022-08-25T03:15:14;4.13;;;1.83;;
74320;SDS011;62738;45.772;4.804;2022-08-25T03:18:03;5.13;;;1.95;;
74320;SDS011;62738;45.772;4.804;2022-08-25T03:20:54;4.55;;;1.73;;
74320;SDS011;62738;45.772;4.804;2022-08-25T03:23:41;3.22;;;1.70;;
74320;SDS011;62738;45.772;4.804;2022-08-25T03:26:28;2.40;;;1.75;;
74320;SDS011;62738;45.772;4.804;2022-08-25T03:29:34;3.08;;;1.45;;
74320;SDS011;62738;45.772;4.804;2022-08-25T03:32:21;4.85;;;1.95;;
74320;SDS011;62738;45.772;4.804;2022-08-25T03:35:09;3.17;;;1.92;;
74320;SDS011;62738;45.772;4.804;2022-08-25T03:37:57;4.47;;;2.00;;
74320;SDS011;62738;45.772;4.804;2022-08-25T03:40:45;3.90;;;1.73;;
74320;SDS011;62738;45.772;4.804;2022-08-25T03:43:32;3.92;;;1.80;;
74320;SDS011;62738;45.772;4.804;2022-08-25T03:46:23;3.05;;;1.83;;
74320;SDS011;62738;45.772;4.804;2022-08-25T03:49:14;2.70;;;1.77;;
74320;SDS011;62738;45.772;4.804;2022-08-25T03:52:03;3.50;;;1.95;;
74320;SDS011;62738;45.772;4.804;2022-08-25T03:54:50;3.03;;;1.70;;
74320;SDS011;62738;45.772;4.804;2022-08-25T03:57:38;2.83;;;2.05;;
74320;SDS011;62738;45.772;4.804;2022-08-25T04:00:25;3.60;;;1.92;;
74320;SDS011;62738;45.772;4.804;2022-08-25T04:03:12;4.70;;;1.80;;
74320;SDS011;62738;45.772;4.804;2022-08-25T04:05:59;5.63;;;1.92;;
74320;SDS011;62738;45.772;4.804;2022-08-25T04:08:51;4.30;;;1.95;;
74320;SDS011;62738;45.772;4.804;2022-08-25T04:11:38;3.17;;;1.98;;
74320;SDS011;62738;45.772;4.804;2022-08-25T04:14:28;4.78;;;2.15;;
74320;SDS011;62738;45.772;4.804;2022-08-25T04:17:15;4.25;;;2.20;;
74320;SDS011;62738;45.772;4.804;2022-08-25T04:20:03;3.15;;;1.90;;
74320;SDS011;62738;45.772;4.804;2022-08-25T04:22:50;3.17;;;2.30;;
74320;SDS011;62738;45.772;4.804;2022-08-25T04:25:39;2.97;;;1.95;;
74320;SDS011;62738;45.772;4.804;2022-08-25T04:28:31;4.03;;;1.92;;
74320;SDS011;62738;45.772;4.804;2022-08-25T04:31:19;5.85;;;1.90;;
74320;SDS011;62738;45.772;4.804;2022-08-25T04:34:07;2.90;;;1.63;;
74320;SDS011;62738;45.772;4.804;2022-08-25T04:37:14;4.00;;;2.00;;
74320;SDS011;62738;45.772;4.804;2022-08-25T04:40:01;2.78;;;1.60;;
74320;SDS011;62738;45.772;4.804;2022-08-25T04:42:50;3.10;;;2.00;;
74320;SDS011;62738;45.772;4.804;2022-08-25T04:45:38;4.13;;;2.05;;
74320;SDS011;62738;45.772;4.804;2022-08-25T04:48:25;3.05;;;1.70;;
74320;SDS011;62738;45.772;4.804;2022-08-25T04:51:14;4.20;;;1.75;;
74320;SDS011;62738;45.772;4.804;2022-08-25T04:54:05;2.60;;;1.90;;
74320;SDS011;62738;45.772;4.804;2022-08-25T04:56:54;3.40;;;2.20;;
74320;SDS011;62738;45.772;4.804;2022-08-25T04:59:44;4.47;;;1.92;;
74320;SDS011;62738;45.772;4.804;2022-08-25T05:02:31;6.32;;;2.42;;
74320;SDS011;62738;45.772;4.804;2022-08-25T05:05:18;6.45;;;1.90;;
74320;SDS011;62738;45.772;4.804;2022-08-25T05:08:05;3.22;;;1.83;;
74320;SDS011;62738;45.772;4.804;2022-08-25T05:10:52;2.45;;;1.70;;
74320;SDS011;62738;45.772;4.804;2022-08-25T05:13:43;4.38;;;2.22;;
74320;SDS011;62738;45.772;4.804;2022-08-25T05:16:37;5.45;;;1.95;;
74320;SDS011;62738;45.772;4.804;2022-08-25T05:19:24;5.28;;;1.75;;
74320;SDS011;62738;45.772;4.804;2022-08-25T05:22:12;4.45;;;1.52;;
74320;SDS011;62738;45.772;4.804;2022-08-25T05:24:59;4.72;;;1.88;;
74320;SDS011;62738;45.772;4.804;2022-08-25T05:27:46;5.13;;;1.85;;
74320;SDS011;62738;45.772;4.804;2022-08-25T05:30:33;4.25;;;2.03;;
74320;SDS011;62738;45.772;4.804;2022-08-25T05:33:24;3.20;;;1.90;;
74320;SDS011;62738;45.772;4.804;2022-08-25T05:36:16;3.80;;;1.88;;
74320;SDS011;62738;45.772;4.804;2022-08-25T05:39:03;4.78;;;2.08;;
74320;SDS011;62738;45.772;4.804;2022-08-25T05:41:51;4.90;;;2.00;;
74320;SDS011;62738;45.772;4.804;2022-08-25T05:44:38;7.63;;;2.42;;
74320;SDS011;62738;45.772;4.804;2022-08-25T05:47:25;4.47;;;1.90;;
74320;SDS011;62738;45.772;4.804;2022-08-25T05:50:12;5.68;;;2.33;;
74320;SDS011;62738;45.772;4.804;2022-08-25T05:52:59;4.35;;;1.88;;
74320;SDS011;62738;45.772;4.804;2022-08-25T05:55:46;4.38;;;2.00;;
74320;SDS011;62738;45.772;4.804;2022-08-25T05:58:33;5.85;;;2.20;;
74320;SDS011;62738;45.772;4.804;2022-08-25T06:01:26;5.82;;;1.88;;
74320;SDS011;62738;45.772;4.804;2022-08-25T06:04:33;5.40;;;2.00;;
74320;SDS011;62738;45.772;4.804;2022-08-25T06:07:26;5.10;;;2.15;;
74320;SDS011;62738;45.772;4.804;2022-08-25T06:10:13;9.38;;;2.30;;
74320;SDS011;62738;45.772;4.804;2022-08-25T06:13:01;5.30;;;2.15;;
74320;SDS011;62738;45.772;4.804;2022-08-25T06:15:56;4.53;;;2.10;;
74320;SDS011;62738;45.772;4.804;2022-08-25T06:18:44;10.63;;;2.50;;
74320;SDS011;62738;45.772;4.804;2022-08-25T06:21:31;6.78;;;2.28;;
74320;SDS011;62738;45.772;4.804;2022-08-25T06:24:20;9.63;;;2.35;;
74320;SDS011;62738;45.772;4.804;2022-08-25T06:27:07;6.30;;;2.55;;
74320;SDS011;62738;45.772;4.804;2022-08-25T06:29:54;4.57;;;2.30;;
74320;SDS011;62738;45.772;4.804;2022-08-25T06:32:42;8.25;;;2.47;;
74320;SDS011;62738;45.772;4.804;2022-08-25T06:35:30;4.55;;;2.47;;
74320;SDS011;62738;45.772;4.804;2022-08-25T06:38:20;3.92;;;2.45;;
74320;SDS011;62738;45.772;4.804;2022-08-25T06:41:07;7.65;;;2.80;;
74320;SDS011;62738;45.772;4.804;2022-08-25T06:43:58;5.45;;;3.13;;
74320;SDS011;62738;45.772;4.804;2022-08-25T06:46:51;3.40;;;2.95;;
74320;SDS011;62738;45.772;4.804;2022-08-25T06:49:38;7.35;;;3.28;;
74320;SDS011;62738;45.772;4.804;2022-08-25T06:52:25;8.43;;;3.20;;
74320;SDS011;62738;45.772;4.804;2022-08-25T06:55:15;6.38;;;3.03;;
74320;SDS011;62738;45.772;4.804;2022-08-25T06:58:02;10.18;;;3.47;;
74320;SDS011;62738;45.772;4.804;2022-08-25T07:00:55;10.27;;;3.63;;
74320;SDS011;62738;45.772;4.804;2022-08-25T07:03:42;7.05;;;3.38;;
74320;SDS011;62738;45.772;4.804;2022-08-25T07:06:32;10.15;;;3.92;;
74320;SDS011;62738;45.772;4.804;2022-08-25T07:09:21;7.35;;;3.97;;
74320;SDS011;62738;45.772;4.804;2022-08-25T07:12:08;7.55;;;4.20;;
74320;SDS011;62738;45.772;4.804;2022-08-25T07:14:55;8.55;;;3.88;;
74320;SDS011;62738;45.772;4.804;2022-08-25T07:18:02;8.50;;;3.88;;
74320;SDS011;62738;45.772;4.804;2022-08-25T07:20:51;6.00;;;4.10;;
74320;SDS011;62738;45.772;4.804;2022-08-25T07:23:40;8.10;;;3.70;;
74320;SDS011;62738;45.772;4.804;2022-08-25T07:26:29;5.97;;;3.60;;
74320;SDS011;62738;45.772;4.804;2022-08-25T07:29:24;7.68;;;3.53;;
74320;SDS011;62738;45.772;4.804;2022-08-25T07:32:18;6.03;;;3.65;;
74320;SDS011;62738;45.772;4.804;2022-08-25T07:35:06;6.88;;;3.83;;
74320;SDS011;62738;45.772;4.804;2022-08-25T07:38:05;5.97;;;3.60;;
74320;SDS011;62738;45.772;4.804;2022-08-25T07:41:01;6.05;;;3.70;;
74320;SDS011;62738;45.772;4.804;2022-08-25T07:43:49;6.57;;;3.80;;
74320;SDS011;62738;45.772;4.804;2022-08-25T07:46:36;8.35;;;3.50;;
74320;SDS011;62738;45.772;4.804;2022-08-25T07:49:24;8.75;;;3.38;;
74320;SDS011;62738;45.772;4.804;2022-08-25T07:52:21;6.60;;;3.17;;
74320;SDS011;62738;45.772;4.804;2022-08-25T07:55:08;7.68;;;3.78;;
74320;SDS011;62738;45.772;4.804;2022-08-25T07:57:56;8.75;;;3.17;;
74320;SDS011;62738;45.772;4.804;2022-08-25T08:00:47;7.53;;;3.28;;
74320;SDS011;62738;45.772;4.804;2022-08-25T08:03:36;8.30;;;3.17;;
74320;SDS011;62738;45.772;4.804;2022-08-25T08:06:37;7.10;;;3.65;;
74320;SDS011;62738;45.772;4.804;2022-08-25T08:09:24;5.35;;;3.03;;
74320;SDS011;62738;45.772;4.804;2022-08-25T08:12:11;5.22;;;3.13;;
74320;SDS011;62738;45.772;4.804;2022-08-25T08:15:00;9.43;;;3.28;;
74320;SDS011;62738;45.772;4.804;2022-08-25T08:17:48;7.40;;;3.15;;
74320;SDS011;62738;45.772;4.804;2022-08-25T08:20:35;9.70;;;3.40;;
74320;SDS011;62738;45.772;4.804;2022-08-25T08:23:28;6.65;;;3.60;;
74320;SDS011;62738;45.772;4.804;2022-08-25T08:26:16;5.75;;;2.88;;
74320;SDS011;62738;45.772;4.804;2022-08-25T08:29:03;4.43;;;2.65;;
74320;SDS011;62738;45.772;4.804;2022-08-25T08:31:50;6.15;;;2.78;;
74320;SDS011;62738;45.772;4.804;2022-08-25T08:34:38;7.63;;;2.80;;
74320;SDS011;62738;45.772;4.804;2022-08-25T08:37:27;5.95;;;2.78;;
74320;SDS011;62738;45.772;4.804;2022-08-25T08:40:16;10.75;;;3.30;;
74320;SDS011;62738;45.772;4.804;2022-08-25T08:43:05;4.30;;;2.80;;
74320;SDS011;62738;45.772;4.804;2022-08-25T08:46:04;5.43;;;2.65;;
74320;SDS011;62738;45.772;4.804;2022-08-25T08:51:54;4.30;;;2.88;;
74320;SDS011;62738;45.772;4.804;2022-08-25T08:54:46;5.85;;;3.40;;
74320;SDS011;62738;45.772;4.804;2022-08-25T08:57:42;4.80;;;3.22;;
74320;SDS011;62738;45.772;4.804;2022-08-25T09:00:32;6.18;;;2.90;;
74320;SDS011;62738;45.772;4.804;2022-08-25T09:03:28;7.63;;;2.83;;
74320;SDS011;62738;45.772;4.804;2022-08-25T09:06:25;6.80;;;2.92;;
74320;SDS011;62738;45.772;4.804;2022-08-25T09:09:24;5.20;;;2.58;;
74320;SDS011;62738;45.772;4.804;2022-08-25T09:15:27;5.15;;;3.08;;
74320;SDS011;62738;45.772;4.804;2022-08-25T09:28:50;4.90;;;2.70;;
74320;SDS011;62738;45.772;4.804;2022-08-25T09:31:41;4.75;;;2.53;;
74320;SDS011;62738;45.772;4.804;2022-08-25T09:34:29;3.65;;;2.45;;
74320;SDS011;62738;45.772;4.804;2022-08-25T09:37:19;5.40;;;2.40;;
74320;SDS011;62738;45.772;4.804;2022-08-25T09:40:10;6.15;;;2.47;;
74320;SDS011;62738;45.772;4.804;2022-08-25T09:42:58;4.50;;;2.70;;
74320;SDS011;62738;45.772;4.804;2022-08-25T09:45:48;6.70;;;2.47;;
74320;SDS011;62738;45.772;4.804;2022-08-25T09:48:57;11.25;;;2.70;;
74320;SDS011;62738;45.772;4.804;2022-08-25T09:51:56;4.55;;;2.63;;
74320;SDS011;62738;45.772;4.804;2022-08-25T09:58:00;4.75;;;2.60;;
74320;SDS011;62738;45.772;4.804;2022-08-25T10:01:10;5.10;;;2.53;;
74320;SDS011;62738;45.772;4.804;2022-08-25T10:04:06;9.15;;;2.58;;
74320;SDS011;62738;45.772;4.804;2022-08-25T10:07:17;4.13;;;2.33;;
74320;SDS011;62738;45.772;4.804;2022-08-25T10:10:15;9.63;;;2.42;;
74320;SDS011;62738;45.772;4.804;2022-08-25T10:13:38;5.30;;;2.40;;
74320;SDS011;62738;45.772;4.804;2022-08-25T10:16:31;3.58;;;2.30;;
74320;SDS011;62738;45.772;4.804;2022-08-25T10:19:23;5.25;;;2.58;;
74320;SDS011;62738;45.772;4.804;2022-08-25T10:22:26;8.70;;;2.80;;
74320;SDS011;62738;45.772;4.804;2022-08-25T10:25:24;8.30;;;2.10;;
74320;SDS011;62738;45.772;4.804;2022-08-25T10:31:20;6.40;;;2.30;;
74320;SDS011;62738;45.772;4.804;2022-08-25T10:34:16;7.13;;;2.20;;
74320;SDS011;62738;45.772;4.804;2022-08-25T10:37:30;5.00;;;2.33;;
74320;SDS011;62738;45.772;4.804;2022-08-25T10:43:51;7.40;;;2.20;;
74320;SDS011;62738;45.772;4.804;2022-08-25T10:46:52;4.13;;;2.40;;
74320;SDS011;62738;45.772;4.804;2022-08-25T10:49:58;5.35;;;2.42;;
74320;SDS011;62738;45.772;4.804;2022-08-25T10:56:13;18.08;;;9.88;;
74320;SDS011;62738;45.772;4.804;2022-08-25T11:08:44;5.10;;;2.78;;
74320;SDS011;62738;45.772;4.804;2022-08-25T11:14:55;4.35;;;2.60;;
74320;SDS011;62738;45.772;4.804;2022-08-25T11:17:48;4.18;;;2.40;;
74320;SDS011;62738;45.772;4.804;2022-08-25T11:20:43;4.00;;;2.05;;
74320;SDS011;62738;45.772;4.804;2022-08-25T11:23:37;3.03;;;2.10;;
74320;SDS011;62738;45.772;4.804;2022-08-25T11:26:29;4.30;;;1.95;;
74320;SDS011;62738;45.772;4.804;2022-08-25T11:29:24;3.13;;;2.22;;
74320;SDS011;62738;45.772;4.804;2022-08-25T11:32:17;5.32;;;2.03;;
74320;SDS011;62738;45.772;4.804;2022-08-25T11:35:07;4.05;;;2.15;;
74320;SDS011;62738;45.772;4.804;2022-08-25T11:38:17;5.28;;;2.25;;
74320;SDS011;62738;45.772;4.804;2022-08-25T11:47:44;7.03;;;2.40;;
74320;SDS011;62738;45.772;4.804;2022-08-25T11:53:42;3.30;;;2.20;;
74320;SDS011;62738;45.772;4.804;2022-08-25T11:56:31;3.72;;;2.28;;
74320;SDS011;62738;45.772;4.804;2022-08-25T12:02:41;3.35;;;2.30;;
74320;SDS011;62738;45.772;4.804;2022-08-25T12:05:51;5.63;;;2.10;;
74320;SDS011;62738;45.772;4.804;2022-08-25T12:11:52;5.50;;;2.35;;
74320;SDS011;62738;45.772;4.804;2022-08-25T12:17:35;4.55;;;2.17;;
74320;SDS011;62738;45.772;4.804;2022-08-25T12:27:01;6.03;;;2.55;;
74320;SDS011;62738;45.772;4.804;2022-08-25T12:30:37;6.15;;;2.05;;
74320;SDS011;62738;45.772;4.804;2022-08-25T12:36:24;6.00;;;2.10;;
74320;SDS011;62738;45.772;4.804;2022-08-25T12:39:19;3.08;;;1.95;;
74320;SDS011;62738;45.772;4.804;2022-08-25T12:42:27;4.00;;;2.10;;
74320;SDS011;62738;45.772;4.804;2022-08-25T12:45:34;3.38;;;2.00;;
74320;SDS011;62738;45.772;4.804;2022-08-25T12:51:18;4.05;;;1.75;;
74320;SDS011;62738;45.772;4.804;2022-08-25T12:54:17;3.92;;;2.00;;
74320;SDS011;62738;45.772;4.804;2022-08-25T13:00:32;4.38;;;1.83;;
74320;SDS011;62738;45.772;4.804;2022-08-25T13:07:06;3.15;;;1.98;;
74320;SDS011;62738;45.772;4.804;2022-08-25T13:16:00;3.97;;;2.03;;
74320;SDS011;62738;45.772;4.804;2022-08-25T13:18:50;3.10;;;2.00;;
74320;SDS011;62738;45.772;4.804;2022-08-25T13:21:39;3.03;;;2.00;;
74320;SDS011;62738;45.772;4.804;2022-08-25T13:24:33;5.18;;;2.10;;
74320;SDS011;62738;45.772;4.804;2022-08-25T13:27:26;5.43;;;1.90;;
74320;SDS011;62738;45.772;4.804;2022-08-25T13:30:32;2.92;;;2.00;;
74320;SDS011;62738;45.772;4.804;2022-08-25T13:33:21;4.75;;;2.15;;
74320;SDS011;62738;45.772;4.804;2022-08-25T13:36:14;3.90;;;2.00;;
74320;SDS011;62738;45.772;4.804;2022-08-25T13:39:22;5.18;;;1.92;;
74320;SDS011;62738;45.772;4.804;2022-08-25T13:42:31;5.30;;;2.00;;
74320;SDS011;62738;45.772;4.804;2022-08-25T13:45:19;4.70;;;2.08;;
74320;SDS011;62738;45.772;4.804;2022-08-25T13:48:10;7.53;;;1.80;;
74320;SDS011;62738;45.772;4.804;2022-08-25T13:51:15;3.63;;;2.00;;
74320;SDS011;62738;45.772;4.804;2022-08-25T13:54:09;2.25;;;1.80;;
74320;SDS011;62738;45.772;4.804;2022-08-25T13:57:18;3.58;;;1.80;;
74320;SDS011;62738;45.772;4.804;2022-08-25T14:00:10;3.15;;;1.63;;
74320;SDS011;62738;45.772;4.804;2022-08-25T14:02:59;4.00;;;1.67;;
74320;SDS011;62738;45.772;4.804;2022-08-25T14:06:04;3.50;;;1.55;;
74320;SDS011;62738;45.772;4.804;2022-08-25T14:11:46;3.60;;;1.88;;
74320;SDS011;62738;45.772;4.804;2022-08-25T14:14:41;3.25;;;1.67;;
74320;SDS011;62738;45.772;4.804;2022-08-25T14:17:28;2.97;;;1.63;;
74320;SDS011;62738;45.772;4.804;2022-08-25T14:20:26;1.95;;;1.52;;
74320;SDS011;62738;45.772;4.804;2022-08-25T14:23:18;3.97;;;1.73;;
74320;SDS011;62738;45.772;4.804;2022-08-25T14:26:07;5.30;;;2.00;;
74320;SDS011;62738;45.772;4.804;2022-08-25T14:28:54;2.45;;;1.55;;
74320;SDS011;62738;45.772;4.804;2022-08-25T14:31:42;4.68;;;1.70;;
74320;SDS011;62738;45.772;4.804;2022-08-25T14:34:32;2.38;;;1.60;;
74320;SDS011;62738;45.772;4.804;2022-08-25T14:37:22;6.43;;;1.63;;
74320;SDS011;62738;45.772;4.804;2022-08-25T14:40:11;4.65;;;1.98;;
74320;SDS011;62738;45.772;4.804;2022-08-25T14:43:01;2.75;;;1.90;;
74320;SDS011;62738;45.772;4.804;2022-08-25T14:45:48;5.00;;;2.08;;
74320;SDS011;62738;45.772;4.804;2022-08-25T14:48:41;3.70;;;1.90;;
74320;SDS011;62738;45.772;4.804;2022-08-25T14:51:31;3.97;;;1.80;;
74320;SDS011;62738;45.772;4.804;2022-08-25T14:54:22;3.80;;;1.70;;
74320;SDS011;62738;45.772;4.804;2022-08-25T14:57:12;3.78;;;1.88;;
74320;SDS011;62738;45.772;4.804;2022-08-25T15:00:00;3.65;;;1.85;;
74320;SDS011;62738;45.772;4.804;2022-08-25T15:02:48;2.08;;;1.70;;
74320;SDS011;62738;45.772;4.804;2022-08-25T15:05:38;6.40;;;2.00;;
74320;SDS011;62738;45.772;4.804;2022-08-25T15:08:26;3.20;;;1.45;;
74320;SDS011;62738;45.772;4.804;2022-08-25T15:11:32;3.10;;;1.90;;
74320;SDS011;62738;45.772;4.804;2022-08-25T15:14:21;3.92;;;1.70;;
74320;SDS011;62738;45.772;4.804;2022-08-25T15:17:18;4.22;;;1.80;;
74320;SDS011;62738;45.772;4.804;2022-08-25T15:20:06;4.07;;;2.03;;
74320;SDS011;62738;45.772;4.804;2022-08-25T15:22:56;3.35;;;2.00;;
74320;SDS011;62738;45.772;4.804;2022-08-25T15:25:47;2.35;;;1.80;;
74320;SDS011;62738;45.772;4.804;2022-08-25T15:28:39;4.85;;;1.88;;
74320;SDS011;62738;45.772;4.804;2022-08-25T15:31:29;4.30;;;2.13;;
74320;SDS011;62738;45.772;4.804;2022-08-25T15:34:17;3.60;;;2.13;;
74320;SDS011;62738;45.772;4.804;2022-08-25T15:37:14;4.55;;;2.05;;
74320;SDS011;62738;45.772;4.804;2022-08-25T15:40:02;4.75;;;2.03;;
74320;SDS011;62738;45.772;4.804;2022-08-25T15:42:52;6.60;;;2.47;;
74320;SDS011;62738;45.772;4.804;2022-08-25T15:45:41;7.60;;;2.35;;
74320;SDS011;62738;45.772;4.804;2022-08-25T15:48:32;8.23;;;2.10;;
74320;SDS011;62738;45.772;4.804;2022-08-25T15:51:19;8.32;;;2.85;;
74320;SDS011;62738;45.772;4.804;2022-08-25T15:54:06;8.35;;;3.25;;
74320;SDS011;62738;45.772;4.804;2022-08-25T15:56:54;10.25;;;4.25;;
74320;SDS011;62738;45.772;4.804;2022-08-25T15:59:42;9.98;;;4.97;;
74320;SDS011;62738;45.772;4.804;2022-08-25T16:02:30;6.70;;;3.22;;
74320;SDS011;62738;45.772;4.804;2022-08-25T16:05:18;13.52;;;6.30;;
74320;SDS011;62738;45.772;4.804;2022-08-25T16:08:11;13.38;;;4.88;;
74320;SDS011;62738;45.772;4.804;2022-08-25T16:11:05;18.23;;;7.30;;
74320;SDS011;62738;45.772;4.804;2022-08-25T16:14:05;13.23;;;6.10;;
74320;SDS011;62738;45.772;4.804;2022-08-25T16:16:53;10.70;;;5.13;;
74320;SDS011;62738;45.772;4.804;2022-08-25T16:19:45;9.95;;;5.20;;
74320;SDS011;62738;45.772;4.804;2022-08-25T16:22:32;12.25;;;5.72;;
74320;SDS011;62738;45.772;4.804;2022-08-25T16:25:20;13.07;;;5.45;;
74320;SDS011;62738;45.772;4.804;2022-08-25T16:28:07;13.52;;;7.18;;
74320;SDS011;62738;45.772;4.804;2022-08-25T16:30:58;13.25;;;5.25;;
74320;SDS011;62738;45.772;4.804;2022-08-25T16:33:47;11.90;;;6.60;;
74320;SDS011;62738;45.772;4.804;2022-08-25T16:36:34;22.35;;;12.25;;
74320;SDS011;62738;45.772;4.804;2022-08-25T16:39:22;11.35;;;5.75;;
74320;SDS011;62738;45.772;4.804;2022-08-25T16:42:10;12.52;;;5.88;;
74320;SDS011;62738;45.772;4.804;2022-08-25T16:44:57;7.70;;;4.90;;
74320;SDS011;62738;45.772;4.804;2022-08-25T16:47:45;8.25;;;3.83;;
74320;SDS011;62738;45.772;4.804;2022-08-25T16:50:33;8.70;;;4.03;;
74320;SDS011;62738;45.772;4.804;2022-08-25T16:53:20;5.35;;;3.70;;
74320;SDS011;62738;45.772;4.804;2022-08-25T16:56:26;6.72;;;3.78;;
74320;SDS011;62738;45.772;4.804;2022-08-25T16:59:13;8.88;;;4.45;;
74320;SDS011;62738;45.772;4.804;2022-08-25T17:02:00;10.55;;;4.82;;
74320;SDS011;62738;45.772;4.804;2022-08-25T17:04:47;11.80;;;5.53;;
74320;SDS011;62738;45.772;4.804;2022-08-25T17:07:34;11.73;;;4.72;;
74320;SDS011;62738;45.772;4.804;2022-08-25T17:10:22;7.88;;;4.90;;
74320;SDS011;62738;45.772;4.804;2022-08-25T17:13:11;9.20;;;4.50;;
74320;SDS011;62738;45.772;4.804;2022-08-25T17:15:58;8.20;;;4.05;;
74320;SDS011;62738;45.772;4.804;2022-08-25T17:18:48;8.02;;;4.30;;
74320;SDS011;62738;45.772;4.804;2022-08-25T17:21:36;7.35;;;3.95;;
74320;SDS011;62738;45.772;4.804;2022-08-25T17:24:30;7.45;;;4.35;;
74320;SDS011;62738;45.772;4.804;2022-08-25T17:27:18;9.35;;;4.10;;
74320;SDS011;62738;45.772;4.804;2022-08-25T17:30:07;7.22;;;4.40;;
74320;SDS011;62738;45.772;4.804;2022-08-25T17:32:55;10.98;;;4.72;;
74320;SDS011;62738;45.772;4.804;2022-08-25T17:35:43;6.45;;;4.35;;
74320;SDS011;62738;45.772;4.804;2022-08-25T17:38:32;6.05;;;3.97;;
74320;SDS011;62738;45.772;4.804;2022-08-25T17:41:20;6.82;;;4.43;;
74320;SDS011;62738;45.772;4.804;2022-08-25T17:44:07;6.25;;;3.80;;
74320;SDS011;62738;45.772;4.804;2022-08-25T17:46:56;6.57;;;4.13;;
74320;SDS011;62738;45.772;4.804;2022-08-25T17:49:43;9.70;;;4.15;;
74320;SDS011;62738;45.772;4.804;2022-08-25T17:52:30;7.10;;;4.43;;
74320;SDS011;62738;45.772;4.804;2022-08-25T17:55:17;8.50;;;4.28;;
74320;SDS011;62738;45.772;4.804;2022-08-25T17:58:08;6.65;;;3.92;;
74320;SDS011;62738;45.772;4.804;2022-08-25T18:00:57;5.57;;;4.15;;
74320;SDS011;62738;45.772;4.804;2022-08-25T18:03:45;7.32;;;4.10;;
74320;SDS011;62738;45.772;4.804;2022-08-25T18:06:32;7.82;;;3.70;;
74320;SDS011;62738;45.772;4.804;2022-08-25T18:09:19;5.75;;;3.92;;
74320;SDS011;62738;45.772;4.804;2022-08-25T18:12:06;9.60;;;4.95;;
74320;SDS011;62738;45.772;4.804;2022-08-25T18:14:57;6.55;;;3.95;;
74320;SDS011;62738;45.772;4.804;2022-08-25T18:17:44;5.88;;;3.70;;
74320;SDS011;62738;45.772;4.804;2022-08-25T18:20:32;6.50;;;4.07;;
74320;SDS011;62738;45.772;4.804;2022-08-25T18:23:20;5.82;;;3.63;;
74320;SDS011;62738;45.772;4.804;2022-08-25T18:26:08;6.05;;;3.17;;
74320;SDS011;62738;45.772;4.804;2022-08-25T18:28:58;5.20;;;3.20;;
74320;SDS011;62738;45.772;4.804;2022-08-25T18:31:45;7.03;;;3.40;;
74320;SDS011;62738;45.772;4.804;2022-08-25T18:34:34;5.78;;;3.42;;
74320;SDS011;62738;45.772;4.804;2022-08-25T18:37:22;6.22;;;3.63;;
74320;SDS011;62738;45.772;4.804;2022-08-25T18:40:28;5.90;;;3.00;;
74320;SDS011;62738;45.772;4.804;2022-08-25T18:43:19;6.30;;;3.10;;
74320;SDS011;62738;45.772;4.804;2022-08-25T18:46:07;5.25;;;3.22;;
74320;SDS011;62738;45.772;4.804;2022-08-25T18:48:55;7.18;;;3.10;;
74320;SDS011;62738;45.772;4.804;2022-08-25T18:51:43;5.57;;;3.20;;
74320;SDS011;62738;45.772;4.804;2022-08-25T18:54:30;4.80;;;3.10;;
74320;SDS011;62738;45.772;4.804;2022-08-25T18:57:21;6.50;;;3.33;;
74320;SDS011;62738;45.772;4.804;2022-08-25T19:00:09;6.38;;;2.90;;
74320;SDS011;62738;45.772;4.804;2022-08-25T19:03:06;4.72;;;2.83;;
74320;SDS011;62738;45.772;4.804;2022-08-25T19:05:54;8.20;;;3.33;;
74320;SDS011;62738;45.772;4.804;2022-08-25T19:08:43;5.68;;;2.83;;
74320;SDS011;62738;45.772;4.804;2022-08-25T19:11:30;8.70;;;3.00;;
74320;SDS011;62738;45.772;4.804;2022-08-25T19:14:18;5.25;;;3.20;;